Time;durP1;ratioP1;P1;durP2;ratioP2;P2;SDS_P1;SDS_P2;PMS_P1;PMS_P2;Temp;Humidity;BMP_temperature;BMP_pressure;BME280_temperature;BME280_humidity;BME280_pressure;Samples;Min_cycle;Max_cycle;Signal;HPM_P1;HPM_P2
2023/01/21 00:01:45;;;;;;;50.85;28.52;;;0.00;99.90;;;;;;5120437;27;20388;-63
2023/01/21 00:04:10;;;;;;;49.60;28.00;;;0.00;99.90;;;;;;5075798;28;20382;-63
2023/01/21 00:06:36;;;;;;;48.28;27.45;;;0.10;99.90;;;;;;5090485;28;20073;-63
2023/01/21 00:09:02;;;;;;;55.25;28.80;;;0.00;99.90;;;;;;5092825;28;20035;-63
2023/01/21 00:11:28;;;;;;;55.22;30.92;;;0.00;99.90;;;;;;5089425;28;20504;-63
2023/01/21 00:13:53;;;;;;;58.40;30.55;;;0.00;99.90;;;;;;5092272;28;20056;-63
2023/01/21 00:16:19;;;;;;;58.10;32.03;;;0.00;99.90;;;;;;5091639;28;20538;-63
2023/01/21 00:18:46;;;;;;;57.90;29.73;;;0.00;99.90;;;;;;5094636;28;20458;-63
2023/01/21 00:21:12;;;;;;;51.20;28.65;;;0.00;99.90;;;;;;5077257;28;20024;-63
2023/01/21 00:23:38;;;;;;;51.55;29.02;;;0.00;99.90;;;;;;5092865;28;20397;-63
2023/01/21 00:26:05;;;;;;;50.13;28.30;;;0.00;99.90;;;;;;5094315;28;20035;-64
2023/01/21 00:28:33;;;;;;;53.55;29.02;;;0.00;99.90;;;;;;5083204;28;20031;-63
2023/01/21 00:31:04;;;;;;;47.97;27.15;;;0.00;99.90;;;;;;5076876;28;20031;-63
2023/01/21 00:33:30;;;;;;;55.35;31.02;;;0.00;99.90;;;;;;5090907;28;20020;-63
2023/01/21 00:36:01;;;;;;;59.05;31.48;;;0.00;99.90;;;;;;5089152;28;20509;-63
2023/01/21 00:38:27;;;;;;;63.08;33.67;;;0.00;99.90;;;;;;5092746;28;20442;-63
2023/01/21 00:41:16;;;;;;;63.88;34.38;;;-0.10;99.90;;;;;;5092394;28;20054;-63
2023/01/21 00:43:42;;;;;;;63.95;31.80;;;-0.10;99.90;;;;;;5076239;28;20024;-63
2023/01/21 00:46:09;;;;;;;60.33;31.73;;;-0.10;99.90;;;;;;5080393;28;20427;-63
2023/01/21 00:48:35;;;;;;;57.72;30.60;;;-0.10;99.90;;;;;;5092438;28;20042;-63
2023/01/21 00:51:02;;;;;;;65.63;33.78;;;-0.10;99.90;;;;;;5087619;28;20520;-63
2023/01/21 00:53:30;;;;;;;63.10;33.60;;;0.00;99.90;;;;;;5070798;28;20027;-63
2023/01/21 00:56:04;;;;;;;57.28;31.25;;;-0.10;99.90;;;;;;5091299;28;20020;-63
2023/01/21 00:58:30;;;;;;;59.78;32.25;;;-0.10;99.90;;;;;;5081166;28;20019;-63
2023/01/21 01:01:09;;;;;;;57.30;31.38;;;-0.10;99.90;;;;;;5097794;28;20023;-63
2023/01/21 01:03:38;;;;;;;52.28;28.77;;;0.00;99.90;;;;;;5094919;28;20024;-63
2023/01/21 01:06:13;;;;;;;58.20;30.38;;;-0.10;99.90;;;;;;5089102;28;20032;-63
2023/01/21 01:08:39;;;;;;;59.15;29.85;;;-0.10;99.90;;;;;;5089400;28;20019;-63
2023/01/21 01:11:04;;;;;;;58.97;30.08;;;-0.10;99.90;;;;;;5088950;28;20035;-63
2023/01/21 01:13:31;;;;;;;51.42;28.63;;;-0.10;99.90;;;;;;5073486;28;20063;-63
2023/01/21 01:15:57;;;;;;;50.45;28.05;;;-0.10;99.90;;;;;;5070464;28;20024;-63
2023/01/21 01:18:24;;;;;;;50.10;26.48;;;-0.10;99.90;;;;;;5092789;28;20019;-63
2023/01/21 01:20:49;;;;;;;45.35;24.33;;;-0.20;99.90;;;;;;5089448;28;20024;-63
2023/01/21 01:23:15;;;;;;;49.10;27.48;;;-0.20;99.90;;;;;;5090709;28;20016;-63
2023/01/21 01:25:41;;;;;;;44.80;24.08;;;-0.20;99.90;;;;;;5092198;28;20021;-63
2023/01/21 01:28:06;;;;;;;50.13;27.05;;;-0.20;99.90;;;;;;5070143;28;20449;-63
2023/01/21 01:30:33;;;;;;;52.05;27.58;;;-0.20;99.90;;;;;;5091712;28;20027;-63
2023/01/21 01:32:59;;;;;;;54.67;27.40;;;-0.20;99.90;;;;;;5070841;28;20032;-63
2023/01/21 01:35:25;;;;;;;46.13;24.17;;;-0.30;99.90;;;;;;5073018;28;20499;-63
2023/01/21 01:37:50;;;;;;;44.58;23.90;;;-0.30;99.90;;;;;;5069814;28;20020;-63
2023/01/21 01:40:16;;;;;;;50.05;24.60;;;-0.30;99.90;;;;;;5088344;28;20020;-63
2023/01/21 01:42:42;;;;;;;43.85;22.65;;;-0.30;99.90;;;;;;5080450;28;20035;-63
2023/01/21 01:45:13;;;;;;;39.75;22.17;;;-0.30;99.90;;;;;;5088087;28;20020;-63
2023/01/21 01:47:56;;;;;;;44.33;22.88;;;-0.30;99.90;;;;;;5087343;28;20109;-63
2023/01/21 01:50:23;;;;;;;44.33;21.50;;;-0.30;99.90;;;;;;5093984;28;20028;-63
2023/01/21 01:52:49;;;;;;;42.42;22.33;;;-0.30;99.90;;;;;;5079126;28;20026;-63
2023/01/21 01:55:14;;;;;;;44.17;23.60;;;-0.30;99.90;;;;;;5077910;28;20024;-63
2023/01/21 01:57:45;;;;;;;44.47;23.20;;;-0.30;99.90;;;;;;5088492;28;20023;-63
2023/01/21 02:00:11;;;;;;;44.08;23.25;;;-0.40;99.90;;;;;;5089634;28;20028;-63
2023/01/21 02:02:39;;;;;;;38.28;21.70;;;-0.40;99.90;;;;;;5089058;28;20027;-63
2023/01/21 02:05:09;;;;;;;41.35;20.98;;;-0.40;99.90;;;;;;5093382;28;20028;-63
2023/01/21 02:07:39;;;;;;;35.60;19.85;;;-0.40;99.90;;;;;;5077189;28;20032;-63
2023/01/21 02:10:12;;;;;;;38.50;20.38;;;-0.30;99.90;;;;;;5092565;28;20035;-63
2023/01/21 02:12:40;;;;;;;41.45;21.23;;;-0.40;99.90;;;;;;5073344;28;20044;-63
2023/01/21 02:15:07;;;;;;;38.65;20.10;;;-0.40;99.90;;;;;;5103066;27;20039;-63
2023/01/21 02:18:01;;;;;;;36.22;19.30;;;-0.40;99.90;;;;;;5117094;27;20023;-63
2023/01/21 02:20:56;;;;;;;35.35;18.92;;;-0.40;99.90;;;;;;5095084;28;20428;-63
2023/01/21 02:23:40;;;;;;;36.40;17.90;;;-0.50;99.90;;;;;;5090236;28;20027;-63
2023/01/21 02:26:08;;;;;;;39.30;20.35;;;-0.50;99.90;;;;;;5090310;28;20031;-63
2023/01/21 02:29:07;;;;;;;41.70;21.77;;;-0.50;99.90;;;;;;5087586;28;20036;-63
2023/01/21 02:32:29;;;;;;;40.08;20.00;;;-0.50;99.90;;;;;;5111872;27;20065;-62
2023/01/21 02:35:34;;;;;;;41.08;19.52;;;-0.50;99.90;;;;;;5029745;28;20537;-63
2023/01/21 02:38:15;;;;;;;41.33;20.17;;;-0.60;99.90;;;;;;4945416;28;20035;-63
2023/01/21 02:40:48;;;;;;;42.33;19.98;;;-0.50;99.90;;;;;;5074229;28;20034;-63
2023/01/21 02:43:31;;;;;;;37.97;19.73;;;-0.60;99.90;;;;;;5073697;28;20081;-63
2023/01/21 02:46:18;;;;;;;37.03;19.55;;;-0.60;99.90;;;;;;5089575;28;20103;-63
2023/01/21 02:48:55;;;;;;;36.10;18.00;;;-0.60;99.90;;;;;;5093503;28;20035;-63
2023/01/21 02:51:22;;;;;;;32.72;17.92;;;-0.60;99.90;;;;;;5094771;28;20016;-63
2023/01/21 02:53:47;;;;;;;36.58;17.15;;;-0.60;99.90;;;;;;5094642;28;20020;-63
2023/01/21 02:56:21;;;;;;;37.20;19.45;;;-0.60;99.90;;;;;;5095115;28;20031;-63
2023/01/21 02:58:56;;;;;;;42.50;21.98;;;-0.60;99.90;;;;;;5091545;28;20550;-63
2023/01/21 03:01:36;;;;;;;38.30;20.08;;;-0.60;99.90;;;;;;5091983;28;20072;-63
2023/01/21 03:04:14;;;;;;;33.53;18.55;;;-0.60;99.90;;;;;;5075646;28;20023;-63
2023/01/21 03:06:48;;;;;;;35.15;19.00;;;-0.60;99.90;;;;;;5091863;28;20028;-63
2023/01/21 03:09:17;;;;;;;38.20;20.20;;;-0.70;99.90;;;;;;5095689;28;20020;-63
2023/01/21 03:11:51;;;;;;;34.03;18.05;;;-0.70;99.90;;;;;;5100895;28;20531;-63
2023/01/21 03:17:31;;;;;;;38.45;19.65;;;-0.70;99.90;;;;;;5098165;28;20030;-63
2023/01/21 03:20:19;;;;;;;42.38;20.67;;;-0.70;99.90;;;;;;5096765;28;20043;-63
2023/01/21 03:22:48;;;;;;;40.75;20.13;;;-0.70;99.90;;;;;;5099020;28;20103;-63
2023/01/21 03:25:15;;;;;;;37.33;18.58;;;-0.80;99.90;;;;;;5077282;27;20027;-63
2023/01/21 03:27:43;;;;;;;35.53;18.27;;;-0.80;99.90;;;;;;5094540;28;20016;-63
2023/01/21 03:30:18;;;;;;;35.58;17.40;;;-0.80;99.90;;;;;;5117302;27;20027;-63
2023/01/21 03:32:48;;;;;;;36.50;18.73;;;-0.80;99.90;;;;;;5113427;27;20473;-63
2023/01/21 03:35:19;;;;;;;39.35;21.10;;;-0.80;99.90;;;;;;5095837;28;20582;-63
2023/01/21 03:38:24;;;;;;;39.42;18.88;;;-0.80;99.90;;;;;;5072263;28;20040;-63
2023/01/21 03:40:59;;;;;;;42.88;19.73;;;-0.80;99.90;;;;;;5073440;28;20115;-63
2023/01/21 03:43:24;;;;;;;38.42;19.67;;;-0.80;99.90;;;;;;5093326;28;20028;-63
2023/01/21 03:46:20;;;;;;;36.60;18.85;;;-0.80;99.90;;;;;;5097658;28;20031;-63
2023/01/21 03:48:52;;;;;;;39.03;19.20;;;-0.80;99.90;;;;;;5098960;28;20032;-63
2023/01/21 03:51:31;;;;;;;38.35;18.38;;;-0.90;99.90;;;;;;5093568;28;20532;-63
2023/01/21 03:53:58;;;;;;;39.55;19.75;;;-0.80;99.90;;;;;;5098680;28;20016;-63
2023/01/21 03:56:25;;;;;;;35.03;18.15;;;-0.90;99.90;;;;;;5080325;28;20118;-63
2023/01/21 03:58:50;;;;;;;41.20;20.35;;;-0.90;99.90;;;;;;5096495;28;20046;-63
2023/01/21 04:01:16;;;;;;;43.55;22.17;;;-0.90;99.90;;;;;;5090390;28;20469;-63
2023/01/21 04:03:42;;;;;;;37.65;20.30;;;-0.90;99.90;;;;;;5094534;27;20548;-63
2023/01/21 04:06:17;;;;;;;45.03;21.45;;;-0.90;99.90;;;;;;5095745;28;20026;-63
2023/01/21 04:08:42;;;;;;;43.00;20.85;;;-0.90;99.90;;;;;;5089882;28;20030;-63
2023/01/21 04:11:08;;;;;;;41.70;19.80;;;-1.00;99.90;;;;;;5093437;28;20028;-63
2023/01/21 04:13:34;;;;;;;39.13;19.77;;;-1.00;99.90;;;;;;5094240;28;20382;-63
2023/01/21 04:15:59;;;;;;;37.88;20.58;;;-1.00;99.90;;;;;;5097221;28;20036;-63
2023/01/21 04:18:25;;;;;;;35.83;17.95;;;-1.00;99.90;;;;;;5090474;28;20037;-63
2023/01/21 04:20:50;;;;;;;38.70;20.10;;;-1.00;99.90;;;;;;5089815;28;20020;-63
2023/01/21 04:23:16;;;;;;;39.67;20.00;;;-1.00;99.90;;;;;;5099524;28;20447;-63
2023/01/21 04:25:42;;;;;;;40.38;19.58;;;-1.00;99.90;;;;;;5094139;28;20389;-63
2023/01/21 04:28:07;;;;;;;40.67;18.67;;;-0.90;99.90;;;;;;5092365;28;20069;-63
2023/01/21 04:30:33;;;;;;;38.85;19.30;;;-0.90;99.90;;;;;;5091320;28;21173;-63
2023/01/21 04:32:58;;;;;;;39.92;18.73;;;-0.90;99.90;;;;;;5091302;28;20056;-63
2023/01/21 04:35:24;;;;;;;41.58;20.90;;;-1.00;99.90;;;;;;5088947;28;20036;-63
2023/01/21 04:37:49;;;;;;;41.38;20.67;;;-1.00;99.90;;;;;;5089585;28;20461;-63
2023/01/21 04:40:15;;;;;;;39.08;19.63;;;-1.00;99.90;;;;;;5089691;28;20046;-63
2023/01/21 04:42:41;;;;;;;45.22;23.27;;;-1.00;99.90;;;;;;5089465;28;20047;-63
2023/01/21 04:45:07;;;;;;;43.83;22.13;;;-1.00;99.90;;;;;;5098453;28;20477;-62
2023/01/21 04:47:33;;;;;;;46.15;23.45;;;-1.00;99.90;;;;;;5095613;28;20034;-63
2023/01/21 04:49:58;;;;;;;45.08;22.48;;;-1.00;99.90;;;;;;5092097;28;20036;-63
2023/01/21 04:52:24;;;;;;;46.72;22.40;;;-1.10;99.90;;;;;;5076370;28;20034;-63
2023/01/21 04:54:49;;;;;;;39.58;20.30;;;-1.00;99.90;;;;;;5095953;28;20032;-63
2023/01/21 04:57:15;;;;;;;41.95;21.45;;;-1.10;99.90;;;;;;5091216;28;20031;-63
2023/01/21 04:59:41;;;;;;;45.35;21.02;;;-1.00;99.90;;;;;;5089264;28;20435;-63
2023/01/21 05:02:06;;;;;;;44.20;22.35;;;-1.00;99.90;;;;;;5097717;28;20051;-63
2023/01/21 05:04:32;;;;;;;49.47;24.27;;;-1.00;99.90;;;;;;5089215;28;20450;-63
2023/01/21 05:06:58;;;;;;;43.42;22.10;;;-1.00;99.90;;;;;;5091707;28;20040;-63
2023/01/21 05:09:23;;;;;;;44.35;22.02;;;-1.00;99.90;;;;;;5097485;28;20027;-63
2023/01/21 05:11:49;;;;;;;44.65;21.25;;;-1.00;99.90;;;;;;5089958;28;20106;-63
2023/01/21 05:14:14;;;;;;;47.83;22.88;;;-1.00;99.90;;;;;;5091849;28;20048;-63
2023/01/21 05:16:40;;;;;;;44.25;23.33;;;-1.00;99.90;;;;;;5094456;28;20501;-63
2023/01/21 05:19:05;;;;;;;46.38;23.60;;;-1.10;99.90;;;;;;5091735;28;20362;-63
2023/01/21 05:21:31;;;;;;;49.67;23.25;;;-1.10;99.90;;;;;;5072988;28;20447;-63
2023/01/21 05:23:56;;;;;;;40.28;21.05;;;-1.10;99.90;;;;;;5094302;28;20103;-63
2023/01/21 05:26:22;;;;;;;45.67;20.98;;;-1.10;99.90;;;;;;5091753;28;20407;-63
2023/01/21 05:28:47;;;;;;;48.22;23.90;;;-1.10;99.90;;;;;;5091808;28;20054;-63
2023/01/21 05:31:13;;;;;;;46.13;21.23;;;-1.10;99.90;;;;;;5094925;28;20035;-63
2023/01/21 05:33:39;;;;;;;49.35;22.55;;;-1.10;99.90;;;;;;5091023;28;20019;-63
2023/01/21 05:36:04;;;;;;;44.83;23.10;;;-1.10;99.90;;;;;;5091246;28;20024;-63
2023/01/21 05:38:30;;;;;;;49.20;23.15;;;-1.10;99.90;;;;;;5093758;28;20382;-63
2023/01/21 05:40:58;;;;;;;47.50;22.35;;;-1.10;99.90;;;;;;5078831;28;20114;-63
2023/01/21 05:43:24;;;;;;;43.53;21.95;;;-1.00;99.90;;;;;;5070138;28;20504;-63
2023/01/21 05:45:49;;;;;;;51.13;23.75;;;-1.10;99.90;;;;;;5078461;28;20031;-63
2023/01/21 05:48:15;;;;;;;46.67;21.98;;;-1.10;99.90;;;;;;5088138;28;20393;-63
2023/01/21 05:50:40;;;;;;;44.00;23.33;;;-1.10;99.90;;;;;;5087438;28;20023;-63
2023/01/21 05:53:06;;;;;;;50.50;23.63;;;-1.10;99.90;;;;;;5088093;28;20028;-63
2023/01/21 05:55:31;;;;;;;49.20;24.15;;;-1.10;99.90;;;;;;5093963;28;20435;-63
2023/01/21 05:57:57;;;;;;;50.08;25.45;;;-1.10;99.90;;;;;;5092935;28;20043;-63
2023/01/21 06:00:22;;;;;;;56.35;27.23;;;-1.10;99.90;;;;;;5091031;28;20031;-63
2023/01/21 06:02:48;;;;;;;49.28;23.77;;;-1.10;99.90;;;;;;5075546;28;20015;-63
2023/01/21 06:05:13;;;;;;;43.72;22.35;;;-1.20;99.90;;;;;;5087775;28;20055;-63
2023/01/21 06:07:39;;;;;;;48.42;23.65;;;-1.20;99.90;;;;;;5090278;28;20024;-63
2023/01/21 06:10:05;;;;;;;51.78;23.42;;;-1.10;99.90;;;;;;5087727;28;20035;-63
2023/01/21 06:12:30;;;;;;;47.08;22.45;;;-1.20;99.90;;;;;;5077085;28;20024;-63
2023/01/21 06:14:56;;;;;;;50.70;23.27;;;-1.20;99.90;;;;;;5087997;28;20164;-63
2023/01/21 06:17:21;;;;;;;48.78;22.35;;;-1.20;99.90;;;;;;5093208;28;20096;-63
2023/01/21 06:19:47;;;;;;;44.28;20.95;;;-1.20;99.90;;;;;;5087362;28;20019;-63
2023/01/21 06:22:16;;;;;;;50.40;24.55;;;-1.20;99.90;;;;;;5093106;28;20035;-63
2023/01/21 06:24:42;;;;;;;53.40;24.27;;;-1.20;99.90;;;;;;5090340;28;20019;-63
2023/01/21 06:27:08;;;;;;;49.95;24.05;;;-1.20;99.90;;;;;;5099631;28;20032;-63
2023/01/21 06:29:33;;;;;;;47.45;23.40;;;-1.20;99.90;;;;;;5093437;28;20036;-63
2023/01/21 06:31:59;;;;;;;44.92;21.98;;;-1.20;99.90;;;;;;5076314;28;20039;-63
2023/01/21 06:34:24;;;;;;;50.33;23.05;;;-1.20;99.90;;;;;;5094795;28;20543;-63
2023/01/21 06:36:50;;;;;;;50.65;24.42;;;-1.30;99.90;;;;;;5084870;28;20047;-63
2023/01/21 06:39:15;;;;;;;45.20;21.95;;;-1.30;99.90;;;;;;5070521;28;20120;-63
2023/01/21 06:41:41;;;;;;;41.30;19.63;;;-1.20;99.90;;;;;;5109065;28;20031;-63
2023/01/21 06:44:06;;;;;;;37.25;18.63;;;-1.20;99.90;;;;;;5106657;28;20366;-63
2023/01/21 06:46:32;;;;;;;46.78;22.13;;;-1.20;99.90;;;;;;5092178;28;20208;-63
2023/01/21 06:48:58;;;;;;;46.45;22.13;;;-1.10;99.90;;;;;;5094521;28;20026;-63
2023/01/21 06:51:23;;;;;;;51.75;25.20;;;-1.20;99.90;;;;;;5099183;28;20035;-63
2023/01/21 06:53:49;;;;;;;52.03;26.35;;;-1.10;99.90;;;;;;5090765;28;20031;-63
2023/01/21 06:56:14;;;;;;;62.42;31.08;;;-1.10;99.90;;;;;;5101656;28;20088;-63
2023/01/21 06:58:40;;;;;;;68.25;31.67;;;-1.10;99.90;;;;;;5110474;28;20215;-63
2023/01/21 07:01:05;;;;;;;70.32;30.02;;;-1.10;99.90;;;;;;5110967;28;20023;-63
2023/01/21 07:03:31;;;;;;;66.78;29.13;;;-1.00;99.90;;;;;;5110326;28;20051;-63
2023/01/21 07:05:56;;;;;;;59.33;26.70;;;-1.00;99.90;;;;;;5109451;28;20042;-63
2023/01/21 07:08:22;;;;;;;67.13;30.00;;;-1.00;99.90;;;;;;5104841;28;20469;-63
2023/01/21 07:10:47;;;;;;;63.60;29.80;;;-0.90;99.90;;;;;;5079229;28;20482;-63
2023/01/21 07:13:13;;;;;;;73.78;29.90;;;-0.90;99.90;;;;;;5094145;28;20515;-63
2023/01/21 07:15:38;;;;;;;71.93;30.45;;;-0.80;99.90;;;;;;5093015;28;20024;-63
2023/01/21 07:18:04;;;;;;;70.45;31.13;;;-0.80;99.90;;;;;;5090913;28;20463;-63
2023/01/21 07:20:29;;;;;;;75.72;32.90;;;-0.80;99.90;;;;;;5092451;28;20059;-63
2023/01/21 07:22:55;;;;;;;72.85;32.90;;;-0.80;99.90;;;;;;5095750;28;20561;-63
2023/01/21 07:25:21;;;;;;;71.53;31.70;;;-0.70;99.90;;;;;;5111069;28;20362;-63
2023/01/21 07:27:46;;;;;;;71.82;30.65;;;-0.70;99.90;;;;;;5102661;28;20107;-63
2023/01/21 07:30:19;;;;;;;73.18;31.90;;;-0.60;99.90;;;;;;5105659;28;20031;-63
2023/01/21 07:32:46;;;;;;;71.45;29.52;;;-0.60;99.90;;;;;;5098617;28;20048;-63
2023/01/21 07:35:12;;;;;;;75.72;31.42;;;-0.60;99.90;;;;;;5091651;28;20039;-63
2023/01/21 07:37:37;;;;;;;77.38;31.50;;;-0.50;99.90;;;;;;5094177;28;20032;-63
2023/01/21 07:40:03;;;;;;;78.35;32.33;;;-0.50;99.90;;;;;;5111334;28;20032;-63
2023/01/21 07:42:29;;;;;;;77.05;31.83;;;-0.50;99.90;;;;;;5095199;28;20355;-64
2023/01/21 07:44:55;;;;;;;77.50;32.05;;;-0.40;99.90;;;;;;5099924;28;20122;-63
2023/01/21 07:47:21;;;;;;;79.45;32.00;;;-0.50;99.90;;;;;;5102222;28;20031;-63
2023/01/21 07:49:50;;;;;;;83.60;33.90;;;-0.50;99.90;;;;;;5076151;28;20020;-63
2023/01/21 07:52:16;;;;;;;74.78;30.05;;;-0.40;99.90;;;;;;5119780;27;20033;-63
2023/01/21 07:54:41;;;;;;;75.55;31.00;;;-0.50;99.90;;;;;;5109919;27;20020;-63
2023/01/21 07:57:07;;;;;;;83.72;33.72;;;-0.50;99.90;;;;;;5109570;28;20480;-63
2023/01/21 07:59:33;;;;;;;73.93;30.50;;;-0.40;99.90;;;;;;5089523;28;20091;-63
2023/01/21 08:01:58;;;;;;;76.82;29.77;;;-0.40;99.90;;;;;;5094581;28;20108;-63
2023/01/21 08:04:24;;;;;;;75.15;31.85;;;-0.40;99.90;;;;;;5107034;28;20031;-63
2023/01/21 08:06:55;;;;;;;77.13;31.00;;;-0.40;99.90;;;;;;5095318;28;20081;-63
2023/01/21 08:09:22;;;;;;;85.13;33.55;;;-0.40;99.90;;;;;;5095913;28;20381;-63
2023/01/21 08:11:48;;;;;;;82.85;32.80;;;-0.40;99.90;;;;;;5078806;28;20047;-63
2023/01/21 08:14:13;;;;;;;91.50;35.75;;;-0.40;99.90;;;;;;5094434;28;20090;-63
2023/01/21 08:16:40;;;;;;;90.85;33.95;;;-0.40;99.90;;;;;;5101720;28;20144;-63
2023/01/21 08:19:05;;;;;;;83.85;30.77;;;-0.40;99.90;;;;;;5095223;28;20069;-64
2023/01/21 08:21:31;;;;;;;82.32;32.22;;;-0.40;99.90;;;;;;5105789;28;20027;-63
2023/01/21 08:23:56;;;;;;;84.43;31.23;;;-0.40;99.90;;;;;;5107269;28;20051;-63
2023/01/21 08:26:22;;;;;;;93.95;36.78;;;-0.30;99.90;;;;;;5111122;28;20396;-63
2023/01/21 08:28:47;;;;;;;90.25;34.67;;;-0.40;99.90;;;;;;5110185;28;20391;-63
2023/01/21 08:31:13;;;;;;;87.13;34.00;;;-0.30;99.90;;;;;;5108675;28;20030;-63
2023/01/21 08:33:40;;;;;;;83.85;33.70;;;-0.30;99.90;;;;;;5107357;28;20019;-63
2023/01/21 08:36:07;;;;;;;87.28;34.50;;;-0.30;99.90;;;;;;5105171;28;20073;-63
2023/01/21 08:38:33;;;;;;;87.35;34.67;;;-0.30;99.90;;;;;;5110549;28;20012;-63
2023/01/21 08:40:59;;;;;;;75.57;31.70;;;-0.30;99.90;;;;;;5111613;28;20028;-63
2023/01/21 08:43:25;;;;;;;77.72;31.33;;;-0.20;99.90;;;;;;5084057;28;20028;-63
2023/01/21 08:45:54;;;;;;;81.60;33.13;;;-0.20;99.90;;;;;;5108062;28;20024;-63
2023/01/21 08:48:19;;;;;;;78.07;31.98;;;-0.10;99.90;;;;;;5104331;28;20092;-63
2023/01/21 08:50:45;;;;;;;75.90;28.73;;;-0.10;99.90;;;;;;5106621;28;20027;-63
2023/01/21 08:53:10;;;;;;;72.70;30.17;;;0.00;99.90;;;;;;5077161;28;20038;-63
2023/01/21 08:55:36;;;;;;;78.68;30.40;;;0.00;99.90;;;;;;5103093;28;20023;-63
2023/01/21 08:58:01;;;;;;;80.63;32.65;;;0.00;99.90;;;;;;5089652;28;20032;-63
2023/01/21 09:00:27;;;;;;;91.55;36.35;;;0.10;99.90;;;;;;5109138;28;20035;-63
2023/01/21 09:02:52;;;;;;;81.85;34.63;;;0.10;99.90;;;;;;5089987;28;20016;-63
2023/01/21 09:05:19;;;;;;;81.28;34.05;;;0.10;99.90;;;;;;5104327;28;20036;-63
2023/01/21 09:07:45;;;;;;;78.65;32.15;;;0.20;99.90;;;;;;5088000;28;20054;-63
2023/01/21 09:10:10;;;;;;;74.00;32.88;;;0.20;99.90;;;;;;5086400;28;20024;-63
2023/01/21 09:12:38;;;;;;;74.63;31.98;;;0.20;99.90;;;;;;5101985;28;20024;-63
2023/01/21 09:15:04;;;;;;;77.90;32.70;;;0.30;99.90;;;;;;5071994;28;1036205;-63
2023/01/21 09:17:29;;;;;;;79.68;34.63;;;0.40;99.90;;;;;;5110067;28;20028;-63
2023/01/21 09:19:55;;;;;;;77.75;33.45;;;0.40;99.90;;;;;;5108438;28;20170;-63
2023/01/21 09:22:20;;;;;;;71.55;31.98;;;0.40;99.90;;;;;;5112438;27;20020;-63
2023/01/21 09:24:46;;;;;;;77.47;33.88;;;0.50;99.90;;;;;;5107599;28;20148;-63
2023/01/21 09:27:12;;;;;;;74.78;30.20;;;0.50;99.90;;;;;;5104912;28;20051;-63
2023/01/21 09:29:37;;;;;;;76.45;32.33;;;0.50;99.90;;;;;;5088776;28;20031;-63
2023/01/21 09:32:04;;;;;;;75.07;30.23;;;0.60;99.90;;;;;;5107721;28;20027;-60
2023/01/21 09:34:30;;;;;;;69.25;29.77;;;0.60;99.90;;;;;;5120923;27;20076;-61
2023/01/21 09:36:55;;;;;;;74.00;32.85;;;0.60;99.90;;;;;;5091482;28;20034;-61
2023/01/21 09:39:21;;;;;;;70.00;32.33;;;0.70;99.90;;;;;;5093052;28;20015;-61
2023/01/21 09:41:53;;;;;;;66.88;30.45;;;0.70;99.90;;;;;;5109401;28;20058;-61
2023/01/21 09:44:27;;;;;;;59.25;27.20;;;0.80;99.90;;;;;;5109072;28;20023;-60
2023/01/21 09:47:24;;;;;;;53.92;26.23;;;0.90;99.90;;;;;;5105276;28;20027;-60
2023/01/21 09:50:13;;;;;;;50.03;22.50;;;1.00;99.90;;;;;;5092153;28;20058;-61
2023/01/21 09:52:41;;;;;;;56.63;25.13;;;1.20;99.90;;;;;;5079903;28;20114;-61
2023/01/21 09:55:23;;;;;;;51.22;24.60;;;1.20;99.90;;;;;;5105998;28;20059;-61
2023/01/21 09:58:11;;;;;;;53.13;25.38;;;1.30;99.90;;;;;;5103704;27;20024;-61
2023/01/21 10:00:50;;;;;;;52.38;24.33;;;1.30;99.90;;;;;;5108429;28;20016;-61
2023/01/21 10:03:22;;;;;;;54.33;24.75;;;1.40;99.90;;;;;;5109021;28;20020;-61
2023/01/21 10:06:12;;;;;;;60.05;27.60;;;1.40;99.90;;;;;;5107667;28;20472;-60
2023/01/21 10:09:08;;;;;;;61.73;27.87;;;1.50;99.90;;;;;;5105882;28;20500;-61
2023/01/21 10:12:01;;;;;;;69.10;30.10;;;1.50;99.90;;;;;;5100904;28;20062;-61
2023/01/21 10:14:50;;;;;;;73.45;33.50;;;1.50;99.90;;;;;;5111233;28;20044;-60
2023/01/21 10:17:28;;;;;;;63.33;29.92;;;1.40;99.90;;;;;;5106214;28;20035;-61
2023/01/21 10:20:17;;;;;;;70.90;32.08;;;1.50;99.90;;;;;;5110323;28;20031;-61
2023/01/21 10:22:49;;;;;;;63.37;29.77;;;1.50;99.90;;;;;;5074710;28;20255;-61
2023/01/21 10:25:24;;;;;;;55.55;27.15;;;1.50;99.90;;;;;;5108608;28;20015;-61
2023/01/21 10:27:51;;;;;;;52.97;23.88;;;1.60;99.90;;;;;;5107772;28;20362;-61
2023/01/21 10:30:25;;;;;;;54.45;25.83;;;1.60;99.90;;;;;;5109246;28;20020;-62
2023/01/21 10:32:53;;;;;;;64.28;30.42;;;1.70;99.90;;;;;;5087828;28;20073;-61
2023/01/21 10:35:32;;;;;;;60.70;28.20;;;1.70;99.90;;;;;;5106359;28;20023;-61
2023/01/21 10:38:10;;;;;;;58.85;28.13;;;1.70;99.90;;;;;;5106969;28;20023;-61
2023/01/21 10:40:51;;;;;;;56.10;25.75;;;1.70;99.90;;;;;;5081534;28;20032;-61
2023/01/21 10:43:44;;;;;;;49.30;24.45;;;1.80;99.90;;;;;;5074103;28;20024;-61
2023/01/21 10:46:35;;;;;;;55.42;25.73;;;1.90;99.90;;;;;;5104154;28;20026;-61
2023/01/21 10:49:23;;;;;;;50.28;24.15;;;2.10;99.90;;;;;;5101376;28;20038;-62
2023/01/21 10:52:10;;;;;;;50.50;24.25;;;2.60;99.90;;;;;;5103317;28;20011;-62
2023/01/21 10:54:50;;;;;;;42.38;22.30;;;3.10;99.90;;;;;;5085202;28;20020;-62
2023/01/21 10:57:40;;;;;;;39.25;20.45;;;3.50;99.90;;;;;;5105606;28;20045;-62
2023/01/21 11:00:28;;;;;;;37.88;20.00;;;4.30;99.90;;;;;;5106032;28;20048;-62
2023/01/21 11:02:58;;;;;;;39.63;21.70;;;5.30;99.90;;;;;;5108533;28;20096;-62
2023/01/21 11:05:25;;;;;;;40.88;23.17;;;6.10;99.90;;;;;;5105318;28;20095;-62
2023/01/21 11:07:52;;;;;;;39.63;23.50;;;6.60;99.90;;;;;;5106614;28;20051;-62
2023/01/21 11:10:27;;;;;;;38.75;22.95;;;7.30;99.90;;;;;;5107131;28;20019;-62
2023/01/21 11:12:53;;;;;;;33.42;19.88;;;8.00;99.90;;;;;;5108707;28;20016;-62
2023/01/21 11:15:20;;;;;;;37.22;23.35;;;8.60;99.90;;;;;;5107831;28;20047;-62
2023/01/21 11:17:48;;;;;;;40.65;23.38;;;9.00;99.90;;;;;;5109737;28;20036;-62
2023/01/21 11:20:41;;;;;;;33.88;20.38;;;8.90;99.90;;;;;;5105060;28;20034;-62
2023/01/21 11:23:24;;;;;;;31.33;19.10;;;8.90;99.90;;;;;;5104350;28;20018;-63
2023/01/21 11:25:50;;;;;;;29.08;18.95;;;9.40;99.90;;;;;;5113048;28;20047;-62
2023/01/21 11:28:24;;;;;;;31.00;19.70;;;10.30;99.90;;;;;;5112573;28;20065;-63
2023/01/21 11:31:03;;;;;;;28.90;19.58;;;10.90;99.90;;;;;;5109515;28;20027;-63
2023/01/21 11:33:29;;;;;;;30.83;20.95;;;11.60;99.90;;;;;;5079673;28;20031;-63
2023/01/21 11:35:57;;;;;;;30.90;20.13;;;12.10;99.90;;;;;;5089688;28;20036;-63
2023/01/21 11:38:34;;;;;;;27.88;19.75;;;12.70;99.90;;;;;;5110545;28;20019;-63
2023/01/21 11:41:21;;;;;;;35.55;23.20;;;13.20;99.90;;;;;;5077100;28;20161;-64
2023/01/21 11:44:27;;;;;;;31.65;22.67;;;13.80;99.90;;;;;;5087420;28;20106;-64
2023/01/21 11:46:53;;;;;;;29.15;20.70;;;14.40;97.10;;;;;;5019066;28;20032;-64
2023/01/21 11:49:23;;;;;;;27.20;20.63;;;14.90;94.90;;;;;;5009194;28;20034;-63
2023/01/21 11:51:49;;;;;;;28.88;20.75;;;15.40;92.60;;;;;;5049831;28;20024;-63
2023/01/21 11:54:20;;;;;;;27.77;19.98;;;15.70;91.00;;;;;;5098622;28;20495;-64
2023/01/21 11:56:56;;;;;;;29.13;20.63;;;16.00;89.60;;;;;;5107389;28;20024;-64
2023/01/21 11:59:40;;;;;;;24.23;18.27;;;16.60;84.10;;;;;;5081400;28;20020;-64
2023/01/21 12:02:28;;;;;;;23.40;18.60;;;16.90;79.50;;;;;;5106219;28;20384;-63
2023/01/21 12:05:28;;;;;;;21.55;17.13;;;17.40;75.60;;;;;;5106217;28;20010;-64
2023/01/21 12:07:54;;;;;;;20.15;15.57;;;18.30;72.40;;;;;;5078616;28;20400;-64
2023/01/21 12:10:37;;;;;;;24.50;18.67;;;19.30;70.20;;;;;;5108105;27;20039;-64
2023/01/21 12:13:11;;;;;;;26.10;19.25;;;20.00;65.30;;;;;;5098452;28;20024;-64
2023/01/21 12:15:55;;;;;;;22.50;17.10;;;19.70;61.40;;;;;;5098679;28;20583;-64
2023/01/21 12:18:50;;;;;;;22.42;17.13;;;19.30;61.30;;;;;;5105440;28;20028;-64
2023/01/21 12:21:41;;;;;;;22.88;18.10;;;18.50;62.10;;;;;;5077511;27;20024;-64
2023/01/21 12:24:06;;;;;;;21.85;16.05;;;18.50;60.60;;;;;;5109233;28;20023;-64
2023/01/21 12:26:37;;;;;;;17.90;15.15;;;19.10;60.40;;;;;;5107503;27;20030;-64
2023/01/21 12:29:18;;;;;;;20.30;16.10;;;20.00;59.10;;;;;;5108438;28;20032;-64
2023/01/21 12:31:53;;;;;;;17.85;14.40;;;20.70;55.70;;;;;;5089186;28;20024;-64
2023/01/21 12:34:23;;;;;;;17.38;13.38;;;21.30;55.30;;;;;;5105567;28;20016;-64
2023/01/21 12:36:54;;;;;;;15.57;12.93;;;21.90;54.60;;;;;;5075535;28;20084;-64
2023/01/21 12:39:24;;;;;;;18.63;14.82;;;22.30;53.70;;;;;;5108300;28;20020;-65
2023/01/21 12:42:02;;;;;;;19.70;16.13;;;21.40;53.00;;;;;;5102384;28;20024;-64
2023/01/21 12:44:32;;;;;;;21.45;17.35;;;20.10;53.10;;;;;;5101932;27;20027;-64
2023/01/21 12:47:05;;;;;;;18.83;15.70;;;18.90;54.00;;;;;;5111496;28;20500;-65
2023/01/21 12:49:55;;;;;;;20.27;15.98;;;18.30;55.40;;;;;;5101227;28;20028;-64